Portada
METAR-TAF:

METAR-TAF

Aeropuertos :

Guilin, China

latitud: 25-20N, longitud: 110-18E, altitud: 166 m

Observación

El informe se hizo hace 39 minutos, a las 16:00 UTC
Viento 4 kt con dirección variable
Temperatura 20°C
Humedad 78%
Presión 1010 hPa
Visibilidad 10 km o más
sin nubes por debajo de 1500 m y sin presencia de cumulonimbus.

METAR: ZGKL 281600Z VRB02MPS CAVOK 20/16 Q1010 NOSIG

Hora: 00:39 (16:39 UTC)

Pronóstico

El informe se hizo hace 7 horas y 35 minutos, a las 09:04 UTC
Pronóstico válido del 28 a las 12 UTC al 29 a las 12 UTC
Viento 8 kt del noreste
Visibilidad 10 km o más
sin nubes por debajo de 1500 m y sin presencia de cumulonimbus.

TAF: ZGKL 280904Z 2812/2912 04004MPS CAVOK TX33/2908Z TN16/2822Z

Observaciones y pronósticos meteorológicos de más de 4000 aeropuertos (mensajes METAR y TAF).

Los puntos amarillos y rojos representan las estaciones disponibles.

Ponga el ratón en el punto deseado para ver el nombre de la estación.

Haga clic para ver las observaciones y los pronósticos meteorológicos.

Para cambiar el mapa : haga clic en los botones verdes con una cruz de color negro para hacer un zoom, en el botón verde con un guión para alejar o en las flechas verdes para mapas adyacentes.


METAR-TAF: